Página principal
METAR-TAF:

METAR-TAF

Aeroportos :

Sari, Irão

latitude: 36-38-09N, longitude: 53-11-37E, altura: 11 m

Observação actual do tempo

O boletim foi feito há 47 minutos, às 18:00 UTC
Vento 4 kt de sul
Temperatura 5°C
Humidade 93%
Pressão 1022 hPa
Visibilidade 10 km ou mais
sem nuvens abaixo de 1500 metros e sem cumulonimbus

METAR: OINZ 231800Z 18004KT CAVOK 05/04 Q1022

Hora: 22:17 (18:47 UTC)


TAF: em falta

Observações e previsões do tempo de mais de 4000 aeroportos (mensagens METAR e TAF).

As estações disponíveis são os pontos amarelos e vermelhos sobre o mapa.

Mova o rato sobre o mapa para ver o nome da estação.

Depois clique no ponto para visualizar as observações e previsões meteorológicas.

Para alterar o mapa : clique nos botões verdes com uma cruz preta para aumentar o zoom; no botão verde com uma pitada de zoom; ou nas setas verdes para mapas adjacentes.


METAR-TAF: